sensor_id;sensor_type;location;lat;lon;timestamp;temperature;humidity
24614;DHT22;12760;46.296;25.290;2023-02-01T00:01:45;2.40;99.90
24614;DHT22;12760;46.296;25.290;2023-02-01T00:04:11;2.50;99.90
24614;DHT22;12760;46.296;25.290;2023-02-01T00:06:37;2.50;99.90
24614;DHT22;12760;46.296;25.290;2023-02-01T00:09:03;2.50;99.90
24614;DHT22;12760;46.296;25.290;2023-02-01T00:11:28;2.40;99.90
24614;DHT22;12760;46.296;25.290;2023-02-01T00:13:54;2.40;99.90
24614;DHT22;12760;46.296;25.290;2023-02-01T00:16:30;2.40;99.90
24614;DHT22;12760;46.296;25.290;2023-02-01T00:21:23;2.30;99.90
24614;DHT22;12760;46.296;25.290;2023-02-01T00:23:49;2.10;99.90
24614;DHT22;12760;46.296;25.290;2023-02-01T00:26:18;2.10;99.90
24614;DHT22;12760;46.296;25.290;2023-02-01T00:28:45;2.10;99.90
24614;DHT22;12760;46.296;25.290;2023-02-01T00:31:11;2.00;99.90
24614;DHT22;12760;46.296;25.290;2023-02-01T00:33:36;1.90;99.90
24614;DHT22;12760;46.296;25.290;2023-02-01T00:36:05;1.90;99.90
24614;DHT22;12760;46.296;25.290;2023-02-01T00:38:33;1.90;99.90
24614;DHT22;12760;46.296;25.290;2023-02-01T00:41:19;1.90;99.90
24614;DHT22;12760;46.296;25.290;2023-02-01T00:43:46;2.00;99.90
24614;DHT22;12760;46.296;25.290;2023-02-01T00:46:13;2.00;99.90
24614;DHT22;12760;46.296;25.290;2023-02-01T00:48:39;1.90;99.90
24614;DHT22;12760;46.296;25.290;2023-02-01T00:51:15;2.00;99.90
24614;DHT22;12760;46.296;25.290;2023-02-01T00:53:41;2.10;99.90
24614;DHT22;12760;46.296;25.290;2023-02-01T00:56:08;2.10;99.90
24614;DHT22;12760;46.296;25.290;2023-02-01T00:58:34;2.10;99.90
24614;DHT22;12760;46.296;25.290;2023-02-01T01:01:05;2.00;99.90
24614;DHT22;12760;46.296;25.290;2023-02-01T01:03:32;1.90;99.90
24614;DHT22;12760;46.296;25.290;2023-02-01T01:06:00;1.90;99.90
24614;DHT22;12760;46.296;25.290;2023-02-01T01:08:26;2.00;99.90
24614;DHT22;12760;46.296;25.290;2023-02-01T01:10:52;1.90;99.90
24614;DHT22;12760;46.296;25.290;2023-02-01T01:13:18;1.90;99.90
24614;DHT22;12760;46.296;25.290;2023-02-01T01:15:44;1.90;99.90
24614;DHT22;12760;46.296;25.290;2023-02-01T01:18:10;1.80;99.90
24614;DHT22;12760;46.296;25.290;2023-02-01T01:20:38;1.80;99.90
24614;DHT22;12760;46.296;25.290;2023-02-01T01:23:05;1.80;99.90
24614;DHT22;12760;46.296;25.290;2023-02-01T01:25:31;1.70;99.90
24614;DHT22;12760;46.296;25.290;2023-02-01T01:27:57;1.80;99.90
24614;DHT22;12760;46.296;25.290;2023-02-01T01:30:23;2.00;99.90
24614;DHT22;12760;46.296;25.290;2023-02-01T01:32:48;2.00;99.90
24614;DHT22;12760;46.296;25.290;2023-02-01T01:35:14;2.10;99.90
24614;DHT22;12760;46.296;25.290;2023-02-01T01:37:40;2.10;99.90
24614;DHT22;12760;46.296;25.290;2023-02-01T01:40:08;2.00;99.90
24614;DHT22;12760;46.296;25.290;2023-02-01T01:42:41;2.10;99.90
24614;DHT22;12760;46.296;25.290;2023-02-01T01:45:32;2.10;99.90
24614;DHT22;12760;46.296;25.290;2023-02-01T01:48:05;2.10;99.90
24614;DHT22;12760;46.296;25.290;2023-02-01T01:50:39;2.10;99.90
24614;DHT22;12760;46.296;25.290;2023-02-01T01:53:08;2.20;99.90
24614;DHT22;12760;46.296;25.290;2023-02-01T01:55:38;2.20;99.90
24614;DHT22;12760;46.296;25.290;2023-02-01T01:58:09;2.30;99.90
24614;DHT22;12760;46.296;25.290;2023-02-01T02:00:37;2.30;99.90
24614;DHT22;12760;46.296;25.290;2023-02-01T02:03:20;2.30;99.90
24614;DHT22;12760;46.296;25.290;2023-02-01T02:05:49;2.30;99.90
24614;DHT22;12760;46.296;25.290;2023-02-01T02:08:16;2.30;99.90
24614;DHT22;12760;46.296;25.290;2023-02-01T02:10:42;2.30;99.90
24614;DHT22;12760;46.296;25.290;2023-02-01T02:13:32;2.30;99.90
24614;DHT22;12760;46.296;25.290;2023-02-01T02:27:06;2.10;99.90
24614;DHT22;12760;46.296;25.290;2023-02-01T02:36:19;2.20;99.90
24614;DHT22;12760;46.296;25.290;2023-02-01T02:39:21;2.20;99.90
24614;DHT22;12760;46.296;25.290;2023-02-01T02:41:50;2.30;99.90
24614;DHT22;12760;46.296;25.290;2023-02-01T02:48:11;2.40;99.90
24614;DHT22;12760;46.296;25.290;2023-02-01T02:50:53;2.30;99.90
24614;DHT22;12760;46.296;25.290;2023-02-01T02:56:35;2.30;99.90
24614;DHT22;12760;46.296;25.290;2023-02-01T02:59:23;2.30;99.90
24614;DHT22;12760;46.296;25.290;2023-02-01T03:02:09;2.30;99.90
24614;DHT22;12760;46.296;25.290;2023-02-01T03:04:54;2.20;99.90
24614;DHT22;12760;46.296;25.290;2023-02-01T03:10:17;2.30;99.90
24614;DHT22;12760;46.296;25.290;2023-02-01T03:12:45;2.30;99.90
24614;DHT22;12760;46.296;25.290;2023-02-01T03:15:26;2.20;99.90
24614;DHT22;12760;46.296;25.290;2023-02-01T03:17:55;2.10;99.90
24614;DHT22;12760;46.296;25.290;2023-02-01T03:20:24;2.10;99.90
24614;DHT22;12760;46.296;25.290;2023-02-01T03:22:52;2.00;99.90
24614;DHT22;12760;46.296;25.290;2023-02-01T03:25:22;2.10;99.90
24614;DHT22;12760;46.296;25.290;2023-02-01T03:28:03;2.20;99.90
24614;DHT22;12760;46.296;25.290;2023-02-01T03:30:36;2.10;99.90
24614;DHT22;12760;46.296;25.290;2023-02-01T03:33:06;2.10;99.90
24614;DHT22;12760;46.296;25.290;2023-02-01T03:38:23;2.00;99.90
24614;DHT22;12760;46.296;25.290;2023-02-01T03:41:18;2.10;99.90
24614;DHT22;12760;46.296;25.290;2023-02-01T03:44:06;2.10;99.90
24614;DHT22;12760;46.296;25.290;2023-02-01T03:46:39;2.20;99.90
24614;DHT22;12760;46.296;25.290;2023-02-01T03:49:09;2.10;99.90
24614;DHT22;12760;46.296;25.290;2023-02-01T03:51:38;2.10;99.90
24614;DHT22;12760;46.296;25.290;2023-02-01T03:54:06;2.20;99.90
24614;DHT22;12760;46.296;25.290;2023-02-01T03:56:37;2.30;99.90
24614;DHT22;12760;46.296;25.290;2023-02-01T03:59:03;2.10;99.90
24614;DHT22;12760;46.296;25.290;2023-02-01T04:01:30;2.00;99.90
24614;DHT22;12760;46.296;25.290;2023-02-01T04:03:57;2.00;99.90
24614;DHT22;12760;46.296;25.290;2023-02-01T04:06:24;1.90;99.90
24614;DHT22;12760;46.296;25.290;2023-02-01T04:08:50;1.80;99.90
24614;DHT22;12760;46.296;25.290;2023-02-01T04:11:17;1.80;99.90
24614;DHT22;12760;46.296;25.290;2023-02-01T04:13:43;1.70;99.90
24614;DHT22;12760;46.296;25.290;2023-02-01T04:16:09;1.60;99.90
24614;DHT22;12760;46.296;25.290;2023-02-01T04:18:35;1.70;99.90
24614;DHT22;12760;46.296;25.290;2023-02-01T04:21:01;1.70;99.90
24614;DHT22;12760;46.296;25.290;2023-02-01T04:23:28;1.70;99.90
24614;DHT22;12760;46.296;25.290;2023-02-01T04:25:54;1.80;99.90
24614;DHT22;12760;46.296;25.290;2023-02-01T04:28:23;1.80;99.90
24614;DHT22;12760;46.296;25.290;2023-02-01T04:30:49;1.90;99.90
24614;DHT22;12760;46.296;25.290;2023-02-01T04:33:15;1.80;99.90
24614;DHT22;12760;46.296;25.290;2023-02-01T04:35:41;1.70;99.90
24614;DHT22;12760;46.296;25.290;2023-02-01T04:38:06;1.70;99.90
24614;DHT22;12760;46.296;25.290;2023-02-01T04:40:32;1.70;99.90
24614;DHT22;12760;46.296;25.290;2023-02-01T04:43:00;1.80;99.90
24614;DHT22;12760;46.296;25.290;2023-02-01T04:45:26;1.90;99.90
24614;DHT22;12760;46.296;25.290;2023-02-01T04:47:51;1.90;99.90
24614;DHT22;12760;46.296;25.290;2023-02-01T04:50:17;1.90;99.90
24614;DHT22;12760;46.296;25.290;2023-02-01T04:52:43;1.80;99.90
24614;DHT22;12760;46.296;25.290;2023-02-01T04:55:10;1.90;99.90
24614;DHT22;12760;46.296;25.290;2023-02-01T04:57:36;2.00;99.90
24614;DHT22;12760;46.296;25.290;2023-02-01T05:00:05;1.90;99.90
24614;DHT22;12760;46.296;25.290;2023-02-01T05:02:31;1.90;99.90
24614;DHT22;12760;46.296;25.290;2023-02-01T05:04:57;2.00;99.90
24614;DHT22;12760;46.296;25.290;2023-02-01T05:07:23;2.00;99.90
24614;DHT22;12760;46.296;25.290;2023-02-01T05:09:49;2.00;99.90
24614;DHT22;12760;46.296;25.290;2023-02-01T05:12:14;2.00;99.90
24614;DHT22;12760;46.296;25.290;2023-02-01T05:14:59;1.90;99.90
24614;DHT22;12760;46.296;25.290;2023-02-01T05:17:26;1.90;99.90
24614;DHT22;12760;46.296;25.290;2023-02-01T05:19:51;2.00;99.90
24614;DHT22;12760;46.296;25.290;2023-02-01T05:22:17;1.90;99.90
24614;DHT22;12760;46.296;25.290;2023-02-01T05:24:44;1.90;99.90
24614;DHT22;12760;46.296;25.290;2023-02-01T05:27:10;1.90;99.90
24614;DHT22;12760;46.296;25.290;2023-02-01T05:29:35;1.80;99.90
24614;DHT22;12760;46.296;25.290;2023-02-01T05:32:01;1.90;99.90
24614;DHT22;12760;46.296;25.290;2023-02-01T05:34:27;1.90;99.90
24614;DHT22;12760;46.296;25.290;2023-02-01T05:36:53;1.90;99.90
24614;DHT22;12760;46.296;25.290;2023-02-01T05:39:19;1.80;99.90
24614;DHT22;12760;46.296;25.290;2023-02-01T05:41:44;1.90;99.90
24614;DHT22;12760;46.296;25.290;2023-02-01T05:44:11;2.10;99.90
24614;DHT22;12760;46.296;25.290;2023-02-01T05:46:37;2.10;99.90
24614;DHT22;12760;46.296;25.290;2023-02-01T05:49:03;2.10;99.90
24614;DHT22;12760;46.296;25.290;2023-02-01T05:51:29;2.10;99.90
24614;DHT22;12760;46.296;25.290;2023-02-01T05:53:55;2.10;99.90
24614;DHT22;12760;46.296;25.290;2023-02-01T05:56:20;2.10;99.90
24614;DHT22;12760;46.296;25.290;2023-02-01T05:58:46;2.10;99.90
24614;DHT22;12760;46.296;25.290;2023-02-01T06:01:12;2.10;99.90
24614;DHT22;12760;46.296;25.290;2023-02-01T06:03:37;2.10;99.90
24614;DHT22;12760;46.296;25.290;2023-02-01T06:06:03;2.10;99.90
24614;DHT22;12760;46.296;25.290;2023-02-01T06:08:29;2.20;99.90
24614;DHT22;12760;46.296;25.290;2023-02-01T06:10:59;2.20;99.90
24614;DHT22;12760;46.296;25.290;2023-02-01T06:13:25;2.20;99.90
24614;DHT22;12760;46.296;25.290;2023-02-01T06:15:51;2.20;99.90
24614;DHT22;12760;46.296;25.290;2023-02-01T06:18:16;2.20;99.90
24614;DHT22;12760;46.296;25.290;2023-02-01T06:20:42;2.20;99.90
24614;DHT22;12760;46.296;25.290;2023-02-01T06:23:08;2.30;99.90
24614;DHT22;12760;46.296;25.290;2023-02-01T06:25:33;2.40;99.90
24614;DHT22;12760;46.296;25.290;2023-02-01T06:28:02;2.40;99.90
24614;DHT22;12760;46.296;25.290;2023-02-01T06:30:31;2.40;99.90
24614;DHT22;12760;46.296;25.290;2023-02-01T06:32:57;2.40;99.90
24614;DHT22;12760;46.296;25.290;2023-02-01T06:35:22;2.40;99.90
24614;DHT22;12760;46.296;25.290;2023-02-01T06:37:48;2.40;99.90
24614;DHT22;12760;46.296;25.290;2023-02-01T06:40:14;2.50;99.90
24614;DHT22;12760;46.296;25.290;2023-02-01T06:42:40;2.40;99.90
24614;DHT22;12760;46.296;25.290;2023-02-01T06:45:06;2.40;99.90
24614;DHT22;12760;46.296;25.290;2023-02-01T06:47:32;2.40;99.90
24614;DHT22;12760;46.296;25.290;2023-02-01T06:49:58;2.40;99.90
24614;DHT22;12760;46.296;25.290;2023-02-01T06:52:23;2.40;99.90
24614;DHT22;12760;46.296;25.290;2023-02-01T06:54:49;2.50;99.90
24614;DHT22;12760;46.296;25.290;2023-02-01T06:57:15;2.50;99.90
24614;DHT22;12760;46.296;25.290;2023-02-01T06:59:41;2.50;99.90
24614;DHT22;12760;46.296;25.290;2023-02-01T07:02:12;2.50;99.90
24614;DHT22;12760;46.296;25.290;2023-02-01T07:04:38;2.50;99.90
24614;DHT22;12760;46.296;25.290;2023-02-01T07:07:04;2.50;99.90
24614;DHT22;12760;46.296;25.290;2023-02-01T07:09:29;2.60;99.90
24614;DHT22;12760;46.296;25.290;2023-02-01T07:11:55;2.60;99.90
24614;DHT22;12760;46.296;25.290;2023-02-01T07:14:21;2.60;99.90
24614;DHT22;12760;46.296;25.290;2023-02-01T07:16:46;2.60;99.90
24614;DHT22;12760;46.296;25.290;2023-02-01T07:19:12;2.60;99.90
24614;DHT22;12760;46.296;25.290;2023-02-01T07:21:38;2.60;99.90
24614;DHT22;12760;46.296;25.290;2023-02-01T07:24:04;2.60;99.90
24614;DHT22;12760;46.296;25.290;2023-02-01T07:26:29;2.60;99.90
24614;DHT22;12760;46.296;25.290;2023-02-01T07:28:56;2.60;99.90
24614;DHT22;12760;46.296;25.290;2023-02-01T07:31:22;2.70;99.90
24614;DHT22;12760;46.296;25.290;2023-02-01T07:33:49;2.80;99.90
24614;DHT22;12760;46.296;25.290;2023-02-01T07:36:18;2.80;99.90
24614;DHT22;12760;46.296;25.290;2023-02-01T07:38:44;2.70;99.90
24614;DHT22;12760;46.296;25.290;2023-02-01T07:41:12;2.70;99.90
24614;DHT22;12760;46.296;25.290;2023-02-01T07:43:38;2.80;99.90
24614;DHT22;12760;46.296;25.290;2023-02-01T07:46:04;2.90;99.90
24614;DHT22;12760;46.296;25.290;2023-02-01T07:48:30;2.90;99.90
24614;DHT22;12760;46.296;25.290;2023-02-01T07:51:05;2.90;99.90
24614;DHT22;12760;46.296;25.290;2023-02-01T07:53:32;2.90;99.90
24614;DHT22;12760;46.296;25.290;2023-02-01T07:55:58;3.00;99.90
24614;DHT22;12760;46.296;25.290;2023-02-01T07:58:24;3.00;99.90
24614;DHT22;12760;46.296;25.290;2023-02-01T08:00:50;3.00;99.90
24614;DHT22;12760;46.296;25.290;2023-02-01T08:03:36;3.00;99.90
24614;DHT22;12760;46.296;25.290;2023-02-01T08:06:02;3.10;99.90
24614;DHT22;12760;46.296;25.290;2023-02-01T08:08:28;3.10;99.90
24614;DHT22;12760;46.296;25.290;2023-02-01T08:11:01;3.10;99.90
24614;DHT22;12760;46.296;25.290;2023-02-01T08:13:27;3.10;99.90
24614;DHT22;12760;46.296;25.290;2023-02-01T08:15:58;3.20;99.90
24614;DHT22;12760;46.296;25.290;2023-02-01T08:18:24;3.20;99.90
24614;DHT22;12760;46.296;25.290;2023-02-01T08:20:49;3.20;99.90
24614;DHT22;12760;46.296;25.290;2023-02-01T08:23:16;3.20;99.90
24614;DHT22;12760;46.296;25.290;2023-02-01T08:25:43;3.20;99.90
24614;DHT22;12760;46.296;25.290;2023-02-01T08:28:09;3.30;99.90
24614;DHT22;12760;46.296;25.290;2023-02-01T08:30:37;3.30;99.90
24614;DHT22;12760;46.296;25.290;2023-02-01T08:33:04;3.30;99.90
24614;DHT22;12760;46.296;25.290;2023-02-01T08:35:31;3.30;99.90
24614;DHT22;12760;46.296;25.290;2023-02-01T08:37:57;3.30;99.90
24614;DHT22;12760;46.296;25.290;2023-02-01T08:40:22;3.30;99.90
24614;DHT22;12760;46.296;25.290;2023-02-01T08:42:48;3.30;99.90
24614;DHT22;12760;46.296;25.290;2023-02-01T08:45:18;3.30;99.90
24614;DHT22;12760;46.296;25.290;2023-02-01T08:47:45;3.30;99.90
24614;DHT22;12760;46.296;25.290;2023-02-01T08:50:13;3.30;99.90
24614;DHT22;12760;46.296;25.290;2023-02-01T08:52:39;3.40;99.90
24614;DHT22;12760;46.296;25.290;2023-02-01T08:55:06;3.40;99.90
24614;DHT22;12760;46.296;25.290;2023-02-01T08:57:32;3.50;99.90
24614;DHT22;12760;46.296;25.290;2023-02-01T08:59:58;3.60;99.90
24614;DHT22;12760;46.296;25.290;2023-02-01T09:02:25;3.70;99.90
24614;DHT22;12760;46.296;25.290;2023-02-01T09:04:51;3.60;99.90
24614;DHT22;12760;46.296;25.290;2023-02-01T09:07:17;3.70;99.90
24614;DHT22;12760;46.296;25.290;2023-02-01T09:09:44;3.70;99.90
24614;DHT22;12760;46.296;25.290;2023-02-01T09:12:10;3.70;99.90
24614;DHT22;12760;46.296;25.290;2023-02-01T09:14:36;3.60;99.90
24614;DHT22;12760;46.296;25.290;2023-02-01T09:17:02;3.50;99.90
24614;DHT22;12760;46.296;25.290;2023-02-01T09:19:28;3.50;99.90
24614;DHT22;12760;46.296;25.290;2023-02-01T09:21:54;3.50;99.90
24614;DHT22;12760;46.296;25.290;2023-02-01T09:24:20;3.70;99.90
24614;DHT22;12760;46.296;25.290;2023-02-01T09:26:45;3.70;99.90
24614;DHT22;12760;46.296;25.290;2023-02-01T09:29:11;3.70;99.90
24614;DHT22;12760;46.296;25.290;2023-02-01T09:31:38;3.80;99.90
24614;DHT22;12760;46.296;25.290;2023-02-01T09:34:04;3.70;99.90
24614;DHT22;12760;46.296;25.290;2023-02-01T09:36:30;3.50;99.90
24614;DHT22;12760;46.296;25.290;2023-02-01T09:38:56;3.50;99.90
24614;DHT22;12760;46.296;25.290;2023-02-01T09:46:35;3.50;99.90
24614;DHT22;12760;46.296;25.290;2023-02-01T09:49:05;3.40;99.90
24614;DHT22;12760;46.296;25.290;2023-02-01T09:51:44;3.40;99.90
24614;DHT22;12760;46.296;25.290;2023-02-01T09:54:16;3.50;99.90
24614;DHT22;12760;46.296;25.290;2023-02-01T09:56:53;3.40;99.90
24614;DHT22;12760;46.296;25.290;2023-02-01T09:59:31;3.40;99.90
24614;DHT22;12760;46.296;25.290;2023-02-01T10:01:59;3.10;99.90
24614;DHT22;12760;46.296;25.290;2023-02-01T10:04:27;3.00;99.90
24614;DHT22;12760;46.296;25.290;2023-02-01T10:15:14;3.30;99.90
24614;DHT22;12760;46.296;25.290;2023-02-01T10:23:35;3.30;99.90
24614;DHT22;12760;46.296;25.290;2023-02-01T10:26:25;3.30;99.90
24614;DHT22;12760;46.296;25.290;2023-02-01T10:29:02;3.20;99.90
24614;DHT22;12760;46.296;25.290;2023-02-01T10:31:30;3.20;99.90
24614;DHT22;12760;46.296;25.290;2023-02-01T10:34:09;3.20;99.90
24614;DHT22;12760;46.296;25.290;2023-02-01T10:36:54;3.30;99.90
24614;DHT22;12760;46.296;25.290;2023-02-01T10:39:20;3.30;99.90
24614;DHT22;12760;46.296;25.290;2023-02-01T10:41:47;3.30;99.90
24614;DHT22;12760;46.296;25.290;2023-02-01T10:44:22;3.30;99.90
24614;DHT22;12760;46.296;25.290;2023-02-01T10:46:50;3.30;99.90
24614;DHT22;12760;46.296;25.290;2023-02-01T10:49:41;3.40;99.90
24614;DHT22;12760;46.296;25.290;2023-02-01T10:53:37;3.20;99.90
24614;DHT22;12760;46.296;25.290;2023-02-01T10:58:02;3.00;99.90
24614;DHT22;12760;46.296;25.290;2023-02-01T11:00:42;3.00;99.90
24614;DHT22;12760;46.296;25.290;2023-02-01T11:05:55;3.00;99.90
24614;DHT22;12760;46.296;25.290;2023-02-01T11:08:21;2.90;99.90
24614;DHT22;12760;46.296;25.290;2023-02-01T11:10:48;3.00;99.90
24614;DHT22;12760;46.296;25.290;2023-02-01T11:13:31;3.10;99.90
24614;DHT22;12760;46.296;25.290;2023-02-01T11:16:02;3.30;99.90
24614;DHT22;12760;46.296;25.290;2023-02-01T11:18:30;3.40;99.90
24614;DHT22;12760;46.296;25.290;2023-02-01T11:20:57;3.40;99.90
24614;DHT22;12760;46.296;25.290;2023-02-01T11:23:28;3.50;99.90
24614;DHT22;12760;46.296;25.290;2023-02-01T11:26:00;3.60;99.90
24614;DHT22;12760;46.296;25.290;2023-02-01T11:28:31;3.40;99.90
24614;DHT22;12760;46.296;25.290;2023-02-01T11:31:03;3.40;99.90
24614;DHT22;12760;46.296;25.290;2023-02-01T11:33:33;3.30;99.90
24614;DHT22;12760;46.296;25.290;2023-02-01T11:36:10;3.20;99.90
24614;DHT22;12760;46.296;25.290;2023-02-01T11:38:37;3.40;99.90
24614;DHT22;12760;46.296;25.290;2023-02-01T11:43:37;3.40;99.90
24614;DHT22;12760;46.296;25.290;2023-02-01T11:46:18;3.50;99.90
24614;DHT22;12760;46.296;25.290;2023-02-01T11:48:51;3.50;99.90
24614;DHT22;12760;46.296;25.290;2023-02-01T11:59:34;3.70;99.90
24614;DHT22;12760;46.296;25.290;2023-02-01T12:08:06;3.50;99.90
24614;DHT22;12760;46.296;25.290;2023-02-01T12:10:58;3.40;99.90
24614;DHT22;12760;46.296;25.290;2023-02-01T12:13:55;3.50;99.90
24614;DHT22;12760;46.296;25.290;2023-02-01T12:16:49;3.60;99.90
24614;DHT22;12760;46.296;25.290;2023-02-01T12:22:14;3.50;99.90
24614;DHT22;12760;46.296;25.290;2023-02-01T12:31:04;3.70;99.90
24614;DHT22;12760;46.296;25.290;2023-02-01T12:36:36;3.70;99.90
24614;DHT22;12760;46.296;25.290;2023-02-01T12:41:50;3.60;99.90
24614;DHT22;12760;46.296;25.290;2023-02-01T12:47:05;3.70;99.90
24614;DHT22;12760;46.296;25.290;2023-02-01T12:49:46;3.70;99.90
24614;DHT22;12760;46.296;25.290;2023-02-01T12:52:51;3.70;99.90
24614;DHT22;12760;46.296;25.290;2023-02-01T12:55:38;3.60;99.90
24614;DHT22;12760;46.296;25.290;2023-02-01T13:01:05;3.40;99.90
24614;DHT22;12760;46.296;25.290;2023-02-01T13:04:05;3.60;99.90
24614;DHT22;12760;46.296;25.290;2023-02-01T13:12:36;3.70;99.90
24614;DHT22;12760;46.296;25.290;2023-02-01T13:15:10;3.70;99.90
24614;DHT22;12760;46.296;25.290;2023-02-01T13:17:38;3.70;99.90
24614;DHT22;12760;46.296;25.290;2023-02-01T13:20:22;3.80;99.90
24614;DHT22;12760;46.296;25.290;2023-02-01T13:22:58;3.90;99.90
24614;DHT22;12760;46.296;25.290;2023-02-01T13:25:37;3.90;99.90
24614;DHT22;12760;46.296;25.290;2023-02-01T13:28:16;4.00;99.90
24614;DHT22;12760;46.296;25.290;2023-02-01T13:33:40;4.00;99.90
24614;DHT22;12760;46.296;25.290;2023-02-01T13:41:30;3.80;99.90
24614;DHT22;12760;46.296;25.290;2023-02-01T13:44:28;3.80;99.90
24614;DHT22;12760;46.296;25.290;2023-02-01T13:46:59;3.80;99.90
24614;DHT22;12760;46.296;25.290;2023-02-01T13:49:30;3.90;99.90
24614;DHT22;12760;46.296;25.290;2023-02-01T13:51:58;3.80;99.90
24614;DHT22;12760;46.296;25.290;2023-02-01T13:54:37;3.70;99.90
24614;DHT22;12760;46.296;25.290;2023-02-01T13:57:06;3.70;99.90
24614;DHT22;12760;46.296;25.290;2023-02-01T14:16:19;4.10;99.90
24614;DHT22;12760;46.296;25.290;2023-02-01T14:21:29;4.00;99.90
24614;DHT22;12760;46.296;25.290;2023-02-01T14:34:56;4.00;99.90
24614;DHT22;12760;46.296;25.290;2023-02-01T14:37:26;4.10;99.90
24614;DHT22;12760;46.296;25.290;2023-02-01T14:39:57;4.10;99.90
24614;DHT22;12760;46.296;25.290;2023-02-01T14:47:49;4.00;99.90
24614;DHT22;12760;46.296;25.290;2023-02-01T14:50:27;4.00;99.90
24614;DHT22;12760;46.296;25.290;2023-02-01T14:55:49;3.80;99.90
24614;DHT22;12760;46.296;25.290;2023-02-01T15:01:22;3.90;99.90
24614;DHT22;12760;46.296;25.290;2023-02-01T15:04:11;4.00;99.90
24614;DHT22;12760;46.296;25.290;2023-02-01T15:06:42;4.00;99.90
24614;DHT22;12760;46.296;25.290;2023-02-01T15:09:37;4.00;99.90
24614;DHT22;12760;46.296;25.290;2023-02-01T15:15:20;3.90;99.90
24614;DHT22;12760;46.296;25.290;2023-02-01T15:17:58;3.80;99.90
24614;DHT22;12760;46.296;25.290;2023-02-01T15:20:30;3.70;99.90
24614;DHT22;12760;46.296;25.290;2023-02-01T15:23:05;3.80;99.90
24614;DHT22;12760;46.296;25.290;2023-02-01T15:25:40;3.80;99.90
24614;DHT22;12760;46.296;25.290;2023-02-01T15:28:12;3.80;99.90
24614;DHT22;12760;46.296;25.290;2023-02-01T15:30:39;3.80;99.90
24614;DHT22;12760;46.296;25.290;2023-02-01T15:33:06;3.70;99.90
24614;DHT22;12760;46.296;25.290;2023-02-01T15:38:30;3.70;99.90
24614;DHT22;12760;46.296;25.290;2023-02-01T15:43:32;3.70;99.90
24614;DHT22;12760;46.296;25.290;2023-02-01T15:46:00;3.70;99.90
24614;DHT22;12760;46.296;25.290;2023-02-01T15:48:39;3.60;99.90
24614;DHT22;12760;46.296;25.290;2023-02-01T15:51:06;3.70;99.90
24614;DHT22;12760;46.296;25.290;2023-02-01T15:53:36;3.70;99.90
24614;DHT22;12760;46.296;25.290;2023-02-01T15:56:04;3.80;99.90
24614;DHT22;12760;46.296;25.290;2023-02-01T15:58:30;3.70;99.90
24614;DHT22;12760;46.296;25.290;2023-02-01T16:01:02;3.70;99.90
24614;DHT22;12760;46.296;25.290;2023-02-01T16:03:43;3.70;99.90
24614;DHT22;12760;46.296;25.290;2023-02-01T16:06:31;3.80;99.90
24614;DHT22;12760;46.296;25.290;2023-02-01T16:09:01;3.80;99.90
24614;DHT22;12760;46.296;25.290;2023-02-01T16:11:32;3.80;99.90
24614;DHT22;12760;46.296;25.290;2023-02-01T16:14:05;3.80;99.90
24614;DHT22;12760;46.296;25.290;2023-02-01T16:16:30;3.80;99.90
24614;DHT22;12760;46.296;25.290;2023-02-01T16:18:56;3.80;99.90
24614;DHT22;12760;46.296;25.290;2023-02-01T16:21:22;3.70;99.90
24614;DHT22;12760;46.296;25.290;2023-02-01T16:23:49;3.70;99.90
24614;DHT22;12760;46.296;25.290;2023-02-01T16:26:16;3.80;99.90
24614;DHT22;12760;46.296;25.290;2023-02-01T16:28:41;3.80;99.90
24614;DHT22;12760;46.296;25.290;2023-02-01T16:31:12;3.80;99.90
24614;DHT22;12760;46.296;25.290;2023-02-01T16:33:45;3.80;99.90
24614;DHT22;12760;46.296;25.290;2023-02-01T16:36:11;3.80;99.90
24614;DHT22;12760;46.296;25.290;2023-02-01T16:38:38;3.60;99.90
24614;DHT22;12760;46.296;25.290;2023-02-01T16:41:05;3.60;99.90
24614;DHT22;12760;46.296;25.290;2023-02-01T16:43:31;3.60;99.90
24614;DHT22;12760;46.296;25.290;2023-02-01T16:46:00;3.50;99.90
24614;DHT22;12760;46.296;25.290;2023-02-01T16:48:35;3.60;99.90
24614;DHT22;12760;46.296;25.290;2023-02-01T16:51:11;3.60;99.90
24614;DHT22;12760;46.296;25.290;2023-02-01T16:53:38;3.50;99.90
24614;DHT22;12760;46.296;25.290;2023-02-01T16:56:18;3.60;99.90
24614;DHT22;12760;46.296;25.290;2023-02-01T16:58:45;3.60;99.90
24614;DHT22;12760;46.296;25.290;2023-02-01T17:01:13;3.60;99.90
24614;DHT22;12760;46.296;25.290;2023-02-01T17:03:39;3.60;99.90
24614;DHT22;12760;46.296;25.290;2023-02-01T17:06:07;3.50;99.90
24614;DHT22;12760;46.296;25.290;2023-02-01T17:08:36;3.40;99.90
24614;DHT22;12760;46.296;25.290;2023-02-01T17:11:04;3.50;99.90
24614;DHT22;12760;46.296;25.290;2023-02-01T17:13:30;3.50;99.90
24614;DHT22;12760;46.296;25.290;2023-02-01T17:16:03;3.50;99.90
24614;DHT22;12760;46.296;25.290;2023-02-01T17:18:32;3.60;99.90
24614;DHT22;12760;46.296;25.290;2023-02-01T17:21:00;3.40;99.90
24614;DHT22;12760;46.296;25.290;2023-02-01T17:23:28;3.40;99.90
24614;DHT22;12760;46.296;25.290;2023-02-01T17:25:55;3.40;99.90
24614;DHT22;12760;46.296;25.290;2023-02-01T17:28:21;3.40;99.90
24614;DHT22;12760;46.296;25.290;2023-02-01T17:30:47;3.40;99.90
24614;DHT22;12760;46.296;25.290;2023-02-01T17:33:34;3.50;99.90
24614;DHT22;12760;46.296;25.290;2023-02-01T17:36:01;3.60;99.90
24614;DHT22;12760;46.296;25.290;2023-02-01T17:38:27;3.50;99.90
24614;DHT22;12760;46.296;25.290;2023-02-01T17:40:53;3.50;99.90
24614;DHT22;12760;46.296;25.290;2023-02-01T17:43:23;3.50;99.90
24614;DHT22;12760;46.296;25.290;2023-02-01T17:45:52;3.40;99.90
24614;DHT22;12760;46.296;25.290;2023-02-01T17:48:22;3.40;99.90
24614;DHT22;12760;46.296;25.290;2023-02-01T17:50:49;3.40;99.90
24614;DHT22;12760;46.296;25.290;2023-02-01T17:53:19;3.30;99.90
24614;DHT22;12760;46.296;25.290;2023-02-01T17:55:49;3.30;99.90
24614;DHT22;12760;46.296;25.290;2023-02-01T17:58:16;3.20;99.90
24614;DHT22;12760;46.296;25.290;2023-02-01T18:00:43;3.20;99.90
24614;DHT22;12760;46.296;25.290;2023-02-01T18:05:48;3.30;99.90
24614;DHT22;12760;46.296;25.290;2023-02-01T18:08:21;3.30;99.90
24614;DHT22;12760;46.296;25.290;2023-02-01T18:10:49;3.20;99.90
24614;DHT22;12760;46.296;25.290;2023-02-01T18:13:15;3.10;99.90
24614;DHT22;12760;46.296;25.290;2023-02-01T18:15:41;3.10;99.90
24614;DHT22;12760;46.296;25.290;2023-02-01T18:18:07;3.10;99.90
24614;DHT22;12760;46.296;25.290;2023-02-01T18:20:33;3.20;99.90
24614;DHT22;12760;46.296;25.290;2023-02-01T18:23:00;3.20;99.90
24614;DHT22;12760;46.296;25.290;2023-02-01T18:25:29;3.30;99.90
24614;DHT22;12760;46.296;25.290;2023-02-01T18:27:56;3.30;99.90
24614;DHT22;12760;46.296;25.290;2023-02-01T18:30:24;3.30;99.90